Aviation Digital Data Service (ADDS)

Output produced by TAFs form (0835 UTC 20 April 2018)
found at http://aviationweather.gov/adds/tafs/
 
KGUP 200539Z 2006/2106 23015G25KT P6SM SCT130 
     FM200800 23010KT P6SM SCT045 
     FM201500 23015G25KT P6SM VCSH SCT045 BKN100 
     FM202000 26016G26KT P6SM VCTS SCT050CB BKN100 
     FM202300 28010KT P6SM FEW050 SCT120